createdAt,value
2019-05-18T00:01:48.704Z,96.86
2019-05-18T00:04:18.943Z,96.97
2019-05-18T00:06:49.115Z,97.03
2019-05-18T00:09:19.300Z,97.59
2019-05-18T00:11:49.529Z,96.90
2019-05-18T00:14:19.708Z,97.02
2019-05-18T00:16:51.774Z,97.00
2019-05-18T00:19:21.987Z,97.10
2019-05-18T00:21:52.376Z,96.78
2019-05-18T00:24:22.543Z,96.78
2019-05-18T00:26:53.791Z,96.82
2019-05-18T00:29:23.940Z,96.52
2019-05-18T00:31:54.185Z,96.62
2019-05-18T00:34:25.517Z,96.65
2019-05-18T00:36:55.735Z,96.76
2019-05-18T00:39:25.881Z,97.21
2019-05-18T00:41:56.091Z,97.04
2019-05-18T00:44:26.273Z,96.96
2019-05-18T00:46:56.438Z,97.09
2019-05-18T00:49:27.198Z,96.66
2019-05-18T00:51:57.581Z,96.71
2019-05-18T00:54:27.726Z,96.46
2019-05-18T00:56:57.936Z,96.80
2019-05-18T00:59:28.164Z,97.16
2019-05-18T01:01:58.256Z,97.39
2019-05-18T01:04:28.530Z,97.53
2019-05-18T01:06:58.649Z,97.43
2019-05-18T01:09:29.023Z,97.36
2019-05-18T01:11:59.152Z,97.40
2019-05-18T01:14:29.521Z,97.44
2019-05-18T01:16:59.721Z,97.34
2019-05-18T01:19:31.510Z,97.32
2019-05-18T01:22:01.666Z,97.27
2019-05-18T01:24:36.436Z,97.13
2019-05-18T01:27:06.869Z,97.09
2019-05-18T01:29:37.151Z,97.22
2019-05-18T01:32:07.336Z,97.34
2019-05-18T01:34:37.597Z,96.48
2019-05-18T01:37:07.970Z,97.30
2019-05-18T01:39:38.128Z,97.44
2019-05-18T01:42:08.255Z,97.43
2019-05-18T01:44:38.611Z,97.42
2019-05-18T01:47:08.785Z,97.55
2019-05-18T01:49:39.005Z,96.88
2019-05-18T01:52:09.281Z,97.23
2019-05-18T01:54:39.460Z,97.81
2019-05-18T01:57:09.600Z,97.90
2019-05-18T01:59:42.098Z,98.02
2019-05-18T02:02:14.942Z,98.09
2019-05-18T02:04:45.158Z,97.72
2019-05-18T02:07:15.250Z,97.85
2019-05-18T02:09:45.486Z,97.98
2019-05-18T02:12:15.628Z,97.57
2019-05-18T02:14:47.530Z,97.71
2019-05-18T02:17:17.707Z,98.08
2019-05-18T02:19:47.979Z,98.12
2019-05-18T02:22:18.190Z,98.12
2019-05-18T02:24:48.359Z,98.40
2019-05-18T02:27:18.580Z,98.52
2019-05-18T02:29:48.791Z,98.65
2019-05-18T02:32:19.147Z,98.69
2019-05-18T02:34:49.271Z,98.64
2019-05-18T02:37:19.477Z,98.49
2019-05-18T02:39:52.281Z,98.33
2019-05-18T02:42:23.068Z,98.32
2019-05-18T02:44:54.305Z,98.37
2019-05-18T02:47:24.484Z,98.19
2019-05-18T02:49:54.636Z,98.32
2019-05-18T02:52:24.784Z,98.45
2019-05-18T02:54:54.919Z,98.42
2019-05-18T02:57:25.131Z,98.24
2019-05-18T02:59:55.295Z,97.66
2019-05-18T03:02:25.392Z,97.50
2019-05-18T03:04:56.667Z,97.53
2019-05-18T03:07:26.896Z,97.67
2019-05-18T03:09:57.193Z,97.88
2019-05-18T03:12:27.306Z,97.87
2019-05-18T03:14:57.531Z,97.61
2019-05-18T03:17:27.637Z,97.64
2019-05-18T03:19:57.795Z,97.53
2019-05-18T03:22:29.691Z,97.37
2019-05-18T03:24:59.897Z,97.47
2019-05-18T03:27:30.130Z,97.90
2019-05-18T03:30:00.300Z,97.75
2019-05-18T03:32:30.497Z,97.39
2019-05-18T03:35:00.937Z,97.45
2019-05-18T03:37:31.054Z,97.83
2019-05-18T03:40:01.533Z,98.14
2019-05-18T03:42:31.775Z,97.98
2019-05-18T03:45:03.682Z,98.15
2019-05-18T03:47:33.794Z,98.22
2019-05-18T03:50:04.346Z,97.84
2019-05-18T04:00:23.619Z,98.25
2019-05-18T04:02:53.714Z,97.96
2019-05-18T04:05:24.112Z,98.05
2019-05-18T04:07:54.284Z,97.64
2019-05-18T04:10:28.620Z,97.59
2019-05-18T04:12:59.022Z,97.86
2019-05-18T04:15:29.621Z,97.88
2019-05-18T04:17:59.737Z,98.00
2019-05-18T04:20:29.886Z,98.30
2019-05-18T04:23:00.132Z,98.29
2019-05-18T04:25:30.389Z,98.34
2019-05-18T04:28:00.514Z,98.40
2019-05-18T04:30:30.693Z,98.47
2019-05-18T04:33:02.511Z,98.37
2019-05-18T04:35:34.521Z,98.75
2019-05-18T04:38:04.824Z,98.59
2019-05-18T04:40:35.188Z,97.72
2019-05-18T04:43:05.297Z,97.17
2019-05-18T04:45:35.485Z,96.97
2019-05-18T04:48:05.650Z,96.97
2019-05-18T04:50:35.956Z,97.02
2019-05-18T04:53:06.072Z,96.76
2019-05-18T04:55:36.425Z,96.30
2019-05-18T04:58:06.574Z,95.74
2019-05-18T05:00:36.885Z,94.84
2019-05-18T05:03:06.991Z,94.31
2019-05-18T05:05:37.211Z,93.90
2019-05-18T05:08:07.490Z,93.29
2019-05-18T05:10:37.716Z,91.78
2019-05-18T05:13:09.162Z,90.17
2019-05-18T05:15:39.755Z,89.17
2019-05-18T05:18:10.131Z,88.18
2019-05-18T05:20:40.400Z,86.57
2019-05-18T05:23:10.622Z,84.21
2019-05-18T05:25:40.782Z,83.09
2019-05-18T05:28:10.937Z,81.89
2019-05-18T05:30:41.191Z,80.82
2019-05-18T05:33:11.401Z,77.70
2019-05-18T05:35:41.569Z,77.75
2019-05-18T05:38:11.715Z,76.44
2019-05-18T05:40:43.263Z,74.35
2019-05-18T05:43:13.484Z,74.35
2019-05-18T05:45:44.716Z,72.97
2019-05-18T05:48:14.829Z,73.18
2019-05-18T05:50:45.407Z,73.48
2019-05-18T05:53:17.979Z,73.00
2019-05-18T05:55:48.230Z,74.23
2019-05-18T05:58:18.589Z,75.20
2019-05-18T06:00:48.770Z,72.95
2019-05-18T06:03:18.965Z,72.77
2019-05-18T06:05:51.099Z,72.39
2019-05-18T06:08:21.344Z,71.77
2019-05-18T06:10:52.059Z,70.47
2019-05-18T06:13:22.288Z,67.79
2019-05-18T06:15:52.545Z,67.78
2019-05-18T06:18:22.730Z,66.54
2019-05-18T06:20:52.888Z,65.80
2019-05-18T06:23:23.251Z,66.39
2019-05-18T06:25:53.496Z,64.53
2019-05-18T06:28:23.721Z,65.33
2019-05-18T06:30:54.041Z,64.54
2019-05-18T06:33:24.206Z,63.45
2019-05-18T06:35:54.332Z,63.04
2019-05-18T06:38:24.972Z,63.60
2019-05-18T06:40:55.555Z,61.68
2019-05-18T06:43:27.297Z,59.35
2019-05-18T06:46:00.625Z,57.25
2019-05-18T06:48:31.193Z,57.48
2019-05-18T06:51:07.351Z,55.99
2019-05-18T06:53:33.520Z,54.57
2019-05-18T06:56:04.562Z,50.48
2019-05-18T06:58:37.737Z,52.36
2019-05-18T07:01:08.132Z,52.75
2019-05-18T07:03:38.570Z,48.59
2019-05-18T07:06:09.146Z,49.83
2019-05-18T07:08:41.784Z,48.34
2019-05-18T07:11:12.291Z,47.77
2019-05-18T07:13:42.677Z,49.21
2019-05-18T07:16:12.909Z,48.82
2019-05-18T07:18:43.338Z,50.47
2019-05-18T07:21:21.867Z,49.79
2019-05-18T07:23:46.441Z,50.54
2019-05-18T07:26:19.095Z,49.34
2019-05-18T07:28:49.605Z,50.93
2019-05-18T07:31:19.989Z,49.60
2019-05-18T07:33:50.191Z,47.36
2019-05-18T07:36:20.504Z,46.80
2019-05-18T07:38:50.896Z,46.41
2019-05-18T07:41:21.494Z,46.01
2019-05-18T07:43:52.065Z,46.61
2019-05-18T07:46:22.457Z,47.02
2019-05-18T07:48:52.992Z,45.66
2019-05-18T07:51:36.351Z,48.18
2019-05-18T07:53:56.536Z,47.34
2019-05-18T07:56:26.966Z,45.90
2019-05-18T07:58:57.226Z,43.25
2019-05-18T08:01:27.595Z,42.36
2019-05-18T08:03:58.437Z,39.58
2019-05-18T08:06:30.236Z,37.63
2019-05-18T08:09:00.726Z,36.40
2019-05-18T08:11:31.276Z,36.03
2019-05-18T08:14:02.382Z,35.84
2019-05-18T08:16:32.786Z,34.57
2019-05-18T08:19:04.377Z,35.23
2019-05-18T08:21:50.675Z,35.54
2019-05-18T08:24:11.514Z,35.22
2019-05-18T08:26:42.021Z,34.70
2019-05-18T08:29:15.115Z,32.75
2019-05-18T08:31:45.781Z,33.06
2019-05-18T08:34:16.270Z,32.61
2019-05-18T08:36:46.652Z,32.44
2019-05-18T08:39:17.289Z,31.25
2019-05-18T08:41:48.819Z,32.20
2019-05-18T08:44:19.965Z,31.45
2019-05-18T08:46:50.610Z,30.13
2019-05-18T08:49:23.059Z,30.13
2019-05-18T08:52:07.518Z,29.22
2019-05-18T08:54:25.952Z,28.28
2019-05-18T08:56:56.629Z,30.18
2019-05-18T08:59:27.125Z,28.97
2019-05-18T09:01:57.677Z,27.03
2019-05-18T09:04:28.121Z,27.11
2019-05-18T09:06:58.759Z,26.68
2019-05-18T09:09:29.096Z,26.69
2019-05-18T09:11:59.427Z,25.99
2019-05-18T09:21:43.272Z,26.76
2019-05-18T09:24:14.377Z,26.19
2019-05-18T09:26:44.947Z,26.26
2019-05-18T09:29:15.117Z,25.44
2019-05-18T09:31:45.313Z,24.87
2019-05-18T09:34:15.670Z,25.56
2019-05-18T09:36:46.317Z,24.99
2019-05-18T09:39:18.383Z,24.83
2019-05-18T09:41:48.715Z,24.65
2019-05-18T09:44:19.137Z,24.71
2019-05-18T09:46:50.431Z,25.75
2019-05-18T09:49:20.966Z,24.19
2019-05-18T09:51:51.487Z,25.33
2019-05-18T09:54:21.803Z,25.42
2019-05-18T09:56:55.726Z,26.36
2019-05-18T09:59:26.148Z,27.09
2019-05-18T10:01:56.309Z,27.01
2019-05-18T10:04:26.458Z,27.14
2019-05-18T10:06:56.853Z,27.79
2019-05-18T10:09:37.015Z,26.40
2019-05-18T10:11:59.537Z,26.24
2019-05-18T10:14:30.050Z,25.88
2019-05-18T10:17:00.612Z,25.65
2019-05-18T10:19:31.255Z,26.28
2019-05-18T10:22:01.698Z,26.31
2019-05-18T10:24:32.019Z,25.96
2019-05-18T10:27:02.195Z,24.91
2019-05-18T10:29:32.443Z,24.78
2019-05-18T10:32:02.786Z,26.09
2019-05-18T10:34:33.024Z,25.22
2019-05-18T10:37:03.244Z,23.50
2019-05-18T10:39:38.737Z,23.01
2019-05-18T10:42:08.197Z,23.25
2019-05-18T10:44:38.441Z,23.01
2019-05-18T10:47:08.608Z,24.71
2019-05-18T10:49:40.611Z,23.25
2019-05-18T10:52:11.127Z,23.41
2019-05-18T10:54:41.417Z,21.53
2019-05-18T10:57:11.634Z,21.33
2019-05-18T10:59:42.155Z,20.45
2019-05-18T11:02:12.497Z,22.11
2019-05-18T11:04:42.992Z,21.77
2019-05-18T11:07:13.321Z,19.79
2019-05-18T11:09:43.485Z,19.64
2019-05-18T11:12:17.201Z,19.27
2019-05-18T11:14:47.517Z,20.66
2019-05-18T11:17:17.735Z,20.45
2019-05-18T11:19:48.910Z,21.20
2019-05-18T11:22:19.163Z,23.39
2019-05-18T11:24:49.967Z,23.74
2019-05-18T11:27:20.313Z,22.83
2019-05-18T11:29:53.859Z,22.09
2019-05-18T11:32:24.035Z,24.80
2019-05-18T11:34:55.416Z,25.77
2019-05-18T11:37:26.080Z,24.20
2019-05-18T11:39:57.174Z,23.10
2019-05-18T11:42:27.568Z,21.67
2019-05-18T11:44:57.862Z,22.59
2019-05-18T11:47:28.168Z,21.48
2019-05-18T11:50:01.323Z,20.86
2019-05-18T11:52:31.670Z,20.60
2019-05-18T11:55:02.114Z,20.13
2019-05-18T11:57:32.702Z,19.61
2019-05-18T12:00:03.077Z,19.96
2019-05-18T12:02:33.332Z,21.05
2019-05-18T12:05:03.822Z,21.62
2019-05-18T12:07:34.329Z,21.64
2019-05-18T12:10:05.368Z,20.79
2019-05-18T12:12:35.742Z,20.28
2019-05-18T12:15:06.875Z,21.25
2019-05-18T12:17:37.505Z,20.60
2019-05-18T12:20:09.225Z,21.34
2019-05-18T12:22:40.214Z,21.07
2019-05-18T12:25:10.792Z,20.64
2019-05-18T12:27:42.005Z,20.61
2019-05-18T12:30:13.245Z,21.17
2019-05-18T12:32:44.162Z,21.19
2019-05-18T12:35:15.607Z,22.16
2019-05-18T12:37:46.587Z,21.69
2019-05-18T12:40:20.838Z,22.29
2019-05-18T12:42:51.200Z,23.32
2019-05-18T12:45:21.991Z,23.69
2019-05-18T12:47:53.151Z,23.89
2019-05-18T12:50:24.232Z,23.88
2019-05-18T12:52:55.018Z,24.13
2019-05-18T12:55:27.556Z,24.97
2019-05-18T12:57:58.530Z,26.00
2019-05-18T13:00:29.361Z,26.97
2019-05-18T13:02:59.839Z,25.05
2019-05-18T13:05:37.055Z,25.64
2019-05-18T13:08:08.265Z,25.88
2019-05-18T13:10:38.880Z,26.37
2019-05-18T13:13:09.725Z,26.63
2019-05-18T13:15:40.117Z,27.07
2019-05-18T13:18:10.511Z,28.10
2019-05-18T13:20:41.466Z,27.18
2019-05-18T13:23:12.475Z,28.85
2019-05-18T13:25:46.849Z,31.94
2019-05-18T13:28:17.715Z,34.34
2019-05-18T13:30:48.622Z,40.40
2019-05-18T13:33:20.729Z,42.33
2019-05-18T13:35:53.061Z,44.94
2019-05-18T13:38:24.076Z,49.86
2019-05-18T13:40:54.663Z,50.03
2019-05-18T13:43:25.451Z,55.63
2019-05-18T13:45:56.070Z,57.24
2019-05-18T13:48:26.875Z,53.67
2019-05-18T13:50:57.526Z,54.33
2019-05-18T13:53:27.771Z,54.24
2019-05-18T13:55:58.364Z,54.53
2019-05-18T13:58:28.863Z,55.05
2019-05-18T14:00:59.185Z,60.25
2019-05-18T14:03:30.949Z,60.25
2019-05-18T14:06:01.393Z,58.58
2019-05-18T14:08:31.778Z,58.89
2019-05-18T14:11:02.000Z,58.84
2019-05-18T14:13:32.603Z,60.74
2019-05-18T14:16:03.291Z,59.40
2019-05-18T14:18:33.694Z,61.18
2019-05-18T14:21:07.223Z,61.36
2019-05-18T14:23:37.739Z,61.51
2019-05-18T14:26:08.235Z,63.04
2019-05-18T14:28:38.717Z,64.78
2019-05-18T14:31:09.258Z,67.31
2019-05-18T14:33:39.791Z,66.24
2019-05-18T14:36:11.454Z,65.06
2019-05-18T14:38:41.808Z,66.15
2019-05-18T14:41:13.168Z,67.46
2019-05-18T14:43:43.889Z,67.10
2019-05-18T14:46:14.359Z,66.60
2019-05-18T14:48:44.922Z,65.82
2019-05-18T14:51:15.549Z,66.81
2019-05-18T14:53:46.171Z,66.84
2019-05-18T14:56:16.472Z,68.08
2019-05-18T14:58:47.929Z,70.37
2019-05-18T15:01:18.479Z,70.73
2019-05-18T15:03:49.048Z,69.40
2019-05-18T15:06:19.458Z,67.56
2019-05-18T15:08:54.120Z,68.82
2019-05-18T15:11:24.318Z,71.88
2019-05-18T15:13:58.087Z,71.35
2019-05-18T15:16:28.405Z,69.11
2019-05-18T15:18:58.874Z,70.18
2019-05-18T15:21:29.035Z,70.36
2019-05-18T15:23:59.712Z,69.11
2019-05-18T15:26:30.204Z,66.04
2019-05-18T15:29:00.415Z,67.26
2019-05-18T15:31:30.625Z,67.31
2019-05-18T15:34:00.983Z,66.64
2019-05-18T15:36:31.329Z,67.60
2019-05-18T15:39:01.945Z,67.37
2019-05-18T15:41:34.160Z,68.70
2019-05-18T15:44:08.109Z,68.65
2019-05-18T15:46:38.550Z,68.69
2019-05-18T15:49:09.115Z,69.01
2019-05-18T15:51:39.618Z,56.87
2019-05-18T15:54:12.465Z,64.87
2019-05-18T15:56:44.299Z,65.54
2019-05-18T15:59:14.712Z,69.77
2019-05-18T16:01:44.982Z,67.45
2019-05-18T16:04:15.395Z,69.68
2019-05-18T16:06:45.992Z,69.13
2019-05-18T16:09:16.313Z,67.35
2019-05-18T16:11:46.478Z,67.35
2019-05-18T16:14:17.330Z,67.46
2019-05-18T16:16:47.923Z,70.00
2019-05-18T16:19:18.947Z,68.71
2019-05-18T16:21:49.353Z,67.46
2019-05-18T16:24:19.762Z,66.62
2019-05-18T16:26:50.070Z,67.12
2019-05-18T16:29:20.770Z,66.87
2019-05-18T16:31:51.112Z,66.40
2019-05-18T16:34:21.449Z,66.19
2019-05-18T16:36:51.680Z,65.75
2019-05-18T16:39:24.034Z,65.42
2019-05-18T16:41:54.778Z,66.92
2019-05-18T16:44:25.050Z,67.35
2019-05-18T16:46:55.382Z,66.99
2019-05-18T16:49:25.628Z,67.46
2019-05-18T16:51:56.315Z,67.46
2019-05-18T16:54:26.661Z,67.87
2019-05-18T16:56:57.003Z,66.65
2019-05-18T16:59:27.358Z,67.24
2019-05-18T17:01:58.340Z,68.79
2019-05-18T17:04:28.708Z,71.82
2019-05-18T17:06:59.282Z,73.83
2019-05-18T17:09:29.751Z,75.25
2019-05-18T17:12:00.348Z,75.26
2019-05-18T17:14:31.156Z,74.68
2019-05-18T17:17:01.509Z,74.75
2019-05-18T17:19:32.469Z,76.56
2019-05-18T17:22:03.034Z,76.79
2019-05-18T17:24:33.792Z,75.88
2019-05-18T17:27:05.171Z,75.01
2019-05-18T17:29:35.585Z,74.61
2019-05-18T17:32:06.133Z,74.61
2019-05-18T17:34:36.769Z,73.71
2019-05-18T17:37:07.265Z,73.56
2019-05-18T17:39:37.752Z,73.76
2019-05-18T17:42:08.101Z,73.73
2019-05-18T17:44:38.335Z,73.46
2019-05-18T17:47:08.867Z,73.47
2019-05-18T17:49:40.054Z,74.81
2019-05-18T17:52:10.297Z,75.42
2019-05-18T17:54:40.733Z,76.06
2019-05-18T17:57:11.182Z,75.01
2019-05-18T17:59:41.387Z,74.33
2019-05-18T18:02:11.644Z,75.26
2019-05-18T18:04:42.074Z,75.82
2019-05-18T18:07:12.345Z,76.12
2019-05-18T18:09:42.471Z,76.72
2019-05-18T18:12:12.807Z,79.09
2019-05-18T18:14:43.356Z,81.02
2019-05-18T18:17:17.791Z,82.09
2019-05-18T18:19:48.687Z,82.66
2019-05-18T18:22:19.161Z,81.71
2019-05-18T18:24:49.599Z,82.27
2019-05-18T18:27:25.286Z,84.31
2019-05-18T18:29:52.210Z,85.46
2019-05-18T18:32:22.832Z,84.71
2019-05-18T18:34:53.424Z,84.92
2019-05-18T18:37:25.312Z,85.61
2019-05-18T18:39:55.804Z,87.48
2019-05-18T18:42:26.706Z,86.71
2019-05-18T18:44:57.454Z,86.27
2019-05-18T18:47:30.756Z,87.70
2019-05-18T18:50:01.424Z,87.60
2019-05-18T18:52:33.421Z,87.39
2019-05-18T18:55:04.138Z,88.77
2019-05-18T18:57:41.100Z,88.48
2019-05-18T19:00:07.127Z,89.05
2019-05-18T19:02:38.274Z,89.87
2019-05-18T19:05:08.888Z,89.53
2019-05-18T19:07:39.460Z,89.07
2019-05-18T19:10:10.842Z,88.98
2019-05-18T19:12:41.625Z,88.42
2019-05-18T19:15:12.054Z,88.27
2019-05-18T19:17:42.711Z,88.38
2019-05-18T19:20:13.603Z,88.96
2019-05-18T19:22:45.419Z,88.94
2019-05-18T19:25:16.245Z,89.50
2019-05-18T19:27:54.530Z,89.86
2019-05-18T19:30:19.834Z,89.82
2019-05-18T19:32:50.427Z,90.11
2019-05-18T19:35:21.238Z,90.08
2019-05-18T19:37:51.870Z,89.85
2019-05-18T19:40:22.867Z,89.58
2019-05-18T19:42:53.633Z,90.05
2019-05-18T19:45:24.125Z,90.10
2019-05-18T19:47:55.007Z,90.97
2019-05-18T19:50:26.179Z,90.96
2019-05-18T19:52:56.997Z,90.92
2019-05-18T19:55:28.079Z,91.12
2019-05-18T19:58:08.442Z,91.38
2019-05-18T20:00:33.877Z,90.98
2019-05-18T20:03:05.043Z,91.20
2019-05-18T20:05:36.312Z,91.50
2019-05-18T20:08:09.228Z,91.34
2019-05-18T20:10:41.250Z,90.99
2019-05-18T20:13:11.888Z,92.94
2019-05-18T20:15:43.835Z,93.63
2019-05-18T20:18:14.425Z,91.94
2019-05-18T20:20:45.196Z,91.53
2019-05-18T20:23:15.736Z,91.53
2019-05-18T20:25:46.619Z,91.69
2019-05-18T20:28:23.785Z,91.35
2019-05-18T20:30:50.163Z,91.49
2019-05-18T20:33:21.335Z,91.98
2019-05-18T20:35:52.047Z,92.00
2019-05-18T20:38:22.773Z,91.98
2019-05-18T20:40:53.618Z,92.82
2019-05-18T20:43:24.394Z,93.39
2019-05-18T20:45:55.103Z,93.17
2019-05-18T20:48:26.381Z,93.12
2019-05-18T20:50:57.203Z,93.46
2019-05-18T20:53:27.690Z,93.05
2019-05-18T20:55:58.369Z,93.03
2019-05-18T20:58:39.294Z,93.03
2019-05-18T21:01:02.061Z,93.00
2019-05-18T21:03:33.129Z,92.86
2019-05-18T21:06:04.109Z,92.86
2019-05-18T21:08:34.571Z,92.66
2019-05-18T21:11:05.273Z,92.56
2019-05-18T21:13:36.049Z,92.40
2019-05-18T21:16:07.005Z,94.05
2019-05-18T21:18:37.604Z,95.52
2019-05-18T21:21:08.409Z,96.84
2019-05-18T21:23:39.743Z,96.67
2019-05-18T21:26:11.027Z,96.21
2019-05-18T21:28:54.821Z,96.00
2019-05-18T21:31:14.355Z,95.50
2019-05-18T21:33:46.393Z,95.01
2019-05-18T21:36:17.397Z,94.91
2019-05-18T21:38:48.110Z,94.80
2019-05-18T21:41:19.613Z,94.82
2019-05-18T21:43:50.239Z,95.08
2019-05-18T21:46:21.570Z,95.08
2019-05-18T21:48:52.221Z,95.09
2019-05-18T21:51:25.847Z,94.67
2019-05-18T21:54:00.047Z,94.84
2019-05-18T21:56:30.698Z,94.83
2019-05-18T21:59:12.127Z,94.77
2019-05-18T22:01:41.008Z,94.77
2019-05-18T22:04:11.314Z,94.85
2019-05-18T22:06:41.705Z,94.83
2019-05-18T22:09:11.935Z,95.09
2019-05-18T22:11:42.187Z,95.28
2019-05-18T22:14:12.815Z,95.55
2019-05-18T22:16:43.252Z,95.49
2019-05-18T22:19:13.708Z,95.51
2019-05-18T22:21:44.277Z,95.27
2019-05-18T22:24:14.634Z,95.55
2019-05-18T22:26:45.086Z,95.49
2019-05-18T22:29:15.380Z,95.55
2019-05-18T22:31:45.552Z,95.92
2019-05-18T22:34:15.911Z,96.85
2019-05-18T22:36:46.068Z,96.90
2019-05-18T22:39:17.903Z,97.64
2019-05-18T22:41:48.181Z,98.00
2019-05-18T22:44:18.453Z,97.92
2019-05-18T22:46:48.733Z,97.91
2019-05-18T22:49:19.449Z,97.69
2019-05-18T22:51:49.822Z,97.87
2019-05-18T22:54:20.204Z,98.26
2019-05-18T22:56:50.493Z,98.80
2019-05-18T22:59:21.460Z,99.37
2019-05-18T23:01:51.747Z,99.69
2019-05-18T23:04:21.974Z,99.71
2019-05-18T23:06:52.235Z,99.83
2019-05-18T23:09:22.547Z,99.84
2019-05-18T23:11:53.118Z,99.64
2019-05-18T23:14:23.509Z,99.85
2019-05-18T23:16:56.514Z,99.33
2019-05-18T23:19:26.715Z,99.56
2019-05-18T23:21:57.284Z,99.63
2019-05-18T23:24:27.541Z,99.82
2019-05-18T23:26:57.806Z,99.96
2019-05-18T23:29:28.521Z,99.55
2019-05-18T23:31:58.857Z,98.87
2019-05-18T23:34:29.435Z,98.82
2019-05-18T23:37:00.120Z,99.03
2019-05-18T23:39:30.341Z,98.96
2019-05-18T23:42:00.700Z,99.03
2019-05-18T23:44:31.064Z,99.25
2019-05-18T23:47:01.264Z,99.72
2019-05-18T23:49:31.473Z,100.00
2019-05-18T23:52:01.749Z,100.00
2019-05-18T23:54:32.407Z,100.00
2019-05-18T23:57:02.756Z,100.00
2019-05-18T23:59:35.884Z,99.91
